Bookmark and Share
Track history (hours):
 

Drifting buoy 31764

Last reported at 2012-Aug-28 04:50 UTC. Time now 2014-Apr-21 12:23 UTC.
Position S 25°24' W 043°27'.
Warning: this ship's position is years out of date!

Water temperature 23.2 ° C

NotesDate/timePositionNaut miles runAvg speedWind from/ knotsBaromVisibWave heightAir tempDewpointWater temp
2012-Aug-28 04:50S 25°24' W 043°27'3 0.7 23.2
2012-Aug-28 00:50S 25°21' W 043°27'1 0.4 23.2
2012-Aug-27 22:50S 25°21' W 043°27'0 0.4 23.2
2012-Aug-27 21:50S 25°20' W 043°27'1 0.6 23.2
2012-Aug-27 20:50S 25°20' W 043°27'1 0.9 23.2
2012-Aug-27 19:50S 25°19' W 043°26'1 1.3 23.2
2012-Aug-27 18:50S 25°20' W 043°27'2 1.6 23.2
2012-Aug-27 17:50S 25°19' W 043°28'0 0.0 23.2
2012-Aug-27 16:50S 25°19' W 043°28'1 1.3 23.3
2012-Aug-27 15:50S 25°18' W 043°27'1 0.5 23.2
2012-Aug-27 12:50S 25°17' W 043°27'1 0.5 23.1
2012-Aug-27 10:50S 25°16' W 043°27'1 0.2 23.0
2012-Aug-27 05:50S 25°15' W 043°26'1 0.8 23.0
2012-Aug-27 04:50S 25°14' W 043°26'2 0.6 23.0
2012-Aug-27 01:50S 25°13' W 043°27'1 1.0 23.0
2012-Aug-27 00:50S 25°12' W 043°27'1 0.3 23.0
2012-Aug-26 21:50S 25°11' W 043°27'2 2.4 23.1
2012-Aug-26 20:50S 25°08' W 043°27'0 0.0 23.2
2012-Aug-26 18:50S 25°08' W 043°27'2 1.6 23.2
2012-Aug-26 17:50S 25°07' W 043°25'3 0.5 23.2
2012-Aug-26 10:50S 25°06' W 043°22'4 0.8 22.9
2012-Aug-26 05:50S 25°02' W 043°21'3 1.3 22.8
2012-Aug-26 03:50S 24°60' W 043°20'0 0.0 22.9
2012-Aug-26 01:50S 24°60' W 043°20'3 1.3 22.9
2012-Aug-25 23:50S 24°58' W 043°17'1 0.8 23.0
2012-Aug-25 22:50S 24°58' W 043°17'0 0.4 23.0
2012-Aug-25 21:50S 24°58' W 043°17'2 0.9 23.0
2012-Aug-25 19:50S 24°56' W 043°16'1 0.6 23.0
2012-Aug-25 18:50S 24°56' W 043°15'1 1.2 23.1
2012-Aug-25 17:50S 24°55' W 043°15'1 1.1 23.0
2012-Aug-25 16:50S 24°54' W 043°15'0 0.0 23.0
2012-Aug-25 15:50S 24°54' W 043°15'3 1.0 23.0
2012-Aug-25 12:50S 24°53' W 043°12'1 0.8 22.9
2012-Aug-25 11:50S 24°52' W 043°11'1 1.3 22.9
2012-Aug-25 10:50S 24°51' W 043°11'0 0.0 22.9
2012-Aug-25 09:50S 24°51' W 043°11'1 0.7 22.9
2012-Aug-25 07:50S 24°51' W 043°09'0 0.0 22.8
2012-Aug-25 06:50S 24°51' W 043°09'3 0.4 22.8
2012-Aug-24 23:50S 24°49' W 043°06'1 0.8 22.8
2012-Aug-24 22:50S 24°49' W 043°06'2 0.5 22.8
2012-Aug-24 19:50S 24°48' W 043°05'0 0.2 22.8
2012-Aug-24 18:50S 24°48' W 043°05'1 0.7 22.8
2012-Aug-24 16:50S 24°46' W 043°06'0 0.0 22.8
2012-Aug-24 15:50S 24°46' W 043°06'5 5.1 22.8
2012-Aug-24 14:50S 24°44' W 043°01'1 0.2 22.8
2012-Aug-24 11:50S 24°44' W 043°00'1 0.7 22.8
2012-Aug-24 10:50S 24°45' W 042°60'0 0.0 22.8
2012-Aug-24 09:50S 24°45' W 042°60'3 1.1 22.7
2012-Aug-24 06:50S 24°45' W 042°56'0 0.0 22.8
2012-Aug-24 05:50S 24°45' W 042°56'0 0.0 22.8
2012-Aug-24 04:50S 24°45' W 042°56'0 0.4 22.8
2012-Aug-24 03:50S 24°46' W 042°56'0 0.0 22.8
2012-Aug-24 02:50S 24°46' W 042°56'1 0.3 22.8
2012-Aug-23 23:50S 24°46' W 042°55'0 0.2 22.8
2012-Aug-23 22:50S 24°46' W 042°56'0 0.4 22.8
2012-Aug-23 21:50S 24°46' W 042°55'0 0.2 22.8
2012-Aug-23 20:50S 24°46' W 042°55'1 0.7 22.8
2012-Aug-23 19:50S 24°46' W 042°55'1 0.6 22.8
2012-Aug-23 18:50S 24°46' W 042°55'2 2.0 22.8
2012-Aug-23 17:50S 24°44' W 042°54'0 0.0 22.8
2012-Aug-23 16:50S 24°44' W 042°54'0 0.0 22.8
2012-Aug-23 15:50S 24°44' W 042°54'0 0.0 22.8
2012-Aug-23 14:50S 24°44' W 042°54'1 0.4 22.8
2012-Aug-23 11:50S 24°43' W 042°54'2 2.2 22.7
2012-Aug-23 10:50S 24°43' W 042°51'0 0.0 22.7
2012-Aug-23 09:50S 24°43' W 042°51'2 1.8 22.7
2012-Aug-23 08:50S 24°43' W 042°49'0 0.0 22.7
2012-Aug-23 07:50S 24°43' W 042°49'0 0.0 22.7
2012-Aug-23 06:50S 24°43' W 042°49'0 0.0 22.7
2012-Aug-23 05:50S 24°43' W 042°49'0 0.5 22.7
2012-Aug-23 04:50S 24°43' W 042°50'2 1.7 22.7
2012-Aug-23 03:50S 24°42' W 042°48'1 0.3 22.8
2012-Aug-22 23:50S 24°41' W 042°48'1 1.4 22.9
2012-Aug-22 22:50S 24°40' W 042°48'1 0.7 22.9
2012-Aug-22 20:50S 24°39' W 042°47'0 0.1 22.9
2012-Aug-22 17:50S 24°39' W 042°47'1 0.7 23.0
2012-Aug-22 16:50S 24°39' W 042°46'0 0.0 23.1
2012-Aug-22 14:50S 24°39' W 042°46'3 1.0 23.2
2012-Aug-22 11:50S 24°36' W 042°47'0 0.0 23.4
2012-Aug-22 10:50S 24°36' W 042°47'3 1.7 23.5
2012-Aug-22 08:50S 24°32' W 042°46'0 0.0 23.5
2012-Aug-22 06:50S 24°32' W 042°46'1 0.5 23.6
2012-Aug-22 04:50S 24°32' W 042°45'0 0.0 23.6
2012-Aug-22 03:50S 24°32' W 042°45'1 0.6 23.6
2012-Aug-22 01:50S 24°31' W 042°45'1 0.8 23.6
2012-Aug-22 00:50S 24°31' W 042°44'0 0.4 23.6
2012-Aug-21 23:50S 24°30' W 042°44'0 0.0 23.6
2012-Aug-21 22:50S 24°30' W 042°44'2 0.7 23.7
2012-Aug-21 19:50S 24°28' W 042°43'1 0.8 23.7
2012-Aug-21 18:50S 24°28' W 042°43'0 0.0 23.7
2012-Aug-21 17:50S 24°28' W 042°43'1 0.8 23.7
2012-Aug-21 16:50S 24°27' W 042°42'2 1.5 23.7
2012-Aug-21 15:50S 24°26' W 042°40'0 0.0 23.7
2012-Aug-21 14:50S 24°26' W 042°40'3 1.5 23.7
2012-Aug-21 12:50S 24°25' W 042°38'1 0.5 23.7
2012-Aug-21 10:50S 24°24' W 042°38'7 1.4 23.6
2012-Aug-21 05:50S 24°19' W 042°31'1 0.3 23.6
2012-Aug-21 01:50S 24°19' W 042°30'1 0.8 23.6
2012-Aug-21 00:50S 24°19' W 042°29'2 1.8 23.6
2012-Aug-20 23:50S 24°19' W 042°27'1 1.4 23.6
2012-Aug-20 22:50S 24°18' W 042°26'0 0.0 23.7
2012-Aug-20 21:50S 24°18' W 042°26'1 0.7 23.7
2012-Aug-20 19:50S 24°18' W 042°25'2 1.1 23.7
2012-Aug-20 17:50S 24°17' W 042°22'0 0.1 23.8
2012-Aug-20 16:50S 24°17' W 042°22'1 1.0 23.8
2012-Aug-20 15:50S 24°17' W 042°21'4 1.2 23.8
2012-Aug-20 12:50S 24°15' W 042°18'3 2.7 23.7
2012-Aug-20 11:50S 24°14' W 042°15'0 0.0 23.7
2012-Aug-20 10:50S 24°14' W 042°15'0 0.0 23.7
2012-Aug-20 09:50S 24°14' W 042°15'6 1.6 23.7
2012-Aug-20 05:50S 24°11' W 042°09'1 1.4 23.8
2012-Aug-20 04:50S 24°10' W 042°08'0 0.0 23.8
2012-Aug-20 03:50S 24°10' W 042°08'3 1.3 23.8
2012-Aug-20 01:50S 24°09' W 042°05'3 2.5 23.8
2012-Aug-20 00:50S 24°08' W 042°03'1 0.3 23.8
2012-Aug-19 21:50S 24°08' W 042°02'3 2.7 23.9
2012-Aug-19 20:50S 24°07' W 041°59'0 0.1 23.9
2012-Aug-19 19:50S 24°07' W 041°59'5 2.5 23.9
2012-Aug-19 17:50S 24°04' W 041°54'0 0.2 23.9
2012-Aug-19 16:50S 24°05' W 041°54'2 2.3 23.8
2012-Aug-19 15:50S 24°04' W 041°52'25 1.2 23.8
2012-Aug-18 18:50S 23°54' W 041°27'1 0.6 23.9
2012-Aug-18 17:50S 23°54' W 041°26'2 2.2 23.9
2012-Aug-18 16:50S 23°52' W 041°24'0 0.0 23.9
2012-Aug-18 15:50S 23°52' W 041°24'6 1.6 23.9
2012-Aug-18 11:50S 23°49' W 041°18'6 6.2 23.8
2012-Aug-18 10:50S 23°47' W 041°12'2 0.3 23.8
2012-Aug-18 04:50S 23°46' W 041°10'   23.9

Dump ship's entire track history

sailing weather and tide predictions

Buoy 31764